sensor_id;sensor_type;location;lat;lon;timestamp;P1;durP1;ratioP1;P2;durP2;ratioP2
14306;SDS011;7237;49.500;11.400;2022-09-28T00:00:18;2.33;;;1.40;;
14306;SDS011;7237;49.500;11.400;2022-09-28T00:02:46;2.47;;;1.53;;
14306;SDS011;7237;49.500;11.400;2022-09-28T00:05:13;1.90;;;1.30;;
14306;SDS011;7237;49.500;11.400;2022-09-28T00:07:42;1.83;;;1.30;;
14306;SDS011;7237;49.500;11.400;2022-09-28T00:10:09;2.73;;;1.53;;
14306;SDS011;7237;49.500;11.400;2022-09-28T00:12:36;3.07;;;1.57;;
14306;SDS011;7237;49.500;11.400;2022-09-28T00:15:03;3.10;;;1.57;;
14306;SDS011;7237;49.500;11.400;2022-09-28T00:17:32;2.83;;;1.50;;
14306;SDS011;7237;49.500;11.400;2022-09-28T00:20:00;2.30;;;1.53;;
14306;SDS011;7237;49.500;11.400;2022-09-28T00:22:29;3.10;;;1.77;;
14306;SDS011;7237;49.500;11.400;2022-09-28T00:24:57;2.33;;;1.60;;
14306;SDS011;7237;49.500;11.400;2022-09-28T00:27:24;4.27;;;1.40;;
14306;SDS011;7237;49.500;11.400;2022-09-28T00:29:51;1.50;;;1.33;;
14306;SDS011;7237;49.500;11.400;2022-09-28T00:32:19;1.50;;;1.40;;
14306;SDS011;7237;49.500;11.400;2022-09-28T00:34:48;1.23;;;1.13;;
14306;SDS011;7237;49.500;11.400;2022-09-28T00:37:16;1.87;;;1.23;;
14306;SDS011;7237;49.500;11.400;2022-09-28T00:39:44;3.13;;;1.60;;
14306;SDS011;7237;49.500;11.400;2022-09-28T00:42:14;3.90;;;1.30;;
14306;SDS011;7237;49.500;11.400;2022-09-28T00:44:42;1.37;;;1.27;;
14306;SDS011;7237;49.500;11.400;2022-09-28T00:47:14;5.17;;;1.27;;
14306;SDS011;7237;49.500;11.400;2022-09-28T00:49:45;3.10;;;1.30;;
14306;SDS011;7237;49.500;11.400;2022-09-28T00:52:13;2.23;;;1.10;;
14306;SDS011;7237;49.500;11.400;2022-09-28T00:54:41;1.03;;;0.90;;
14306;SDS011;7237;49.500;11.400;2022-09-28T00:57:09;3.20;;;1.00;;
14306;SDS011;7237;49.500;11.400;2022-09-28T00:59:38;0.93;;;0.90;;
14306;SDS011;7237;49.500;11.400;2022-09-28T01:02:05;6.50;;;1.23;;
14306;SDS011;7237;49.500;11.400;2022-09-28T01:04:34;2.17;;;1.00;;
14306;SDS011;7237;49.500;11.400;2022-09-28T01:07:01;5.23;;;1.27;;
14306;SDS011;7237;49.500;11.400;2022-09-28T01:09:28;3.53;;;1.27;;
14306;SDS011;7237;49.500;11.400;2022-09-28T01:11:56;1.37;;;1.20;;
14306;SDS011;7237;49.500;11.400;2022-09-28T01:14:23;1.50;;;1.10;;
14306;SDS011;7237;49.500;11.400;2022-09-28T01:16:54;2.27;;;1.30;;
14306;SDS011;7237;49.500;11.400;2022-09-28T01:19:29;4.13;;;1.43;;
14306;SDS011;7237;49.500;11.400;2022-09-28T01:22:06;4.83;;;1.33;;
14306;SDS011;7237;49.500;11.400;2022-09-28T01:24:39;1.87;;;1.30;;
14306;SDS011;7237;49.500;11.400;2022-09-28T01:27:13;3.27;;;1.33;;
14306;SDS011;7237;49.500;11.400;2022-09-28T01:32:30;1.57;;;1.47;;
14306;SDS011;7237;49.500;11.400;2022-09-28T01:34:59;3.27;;;1.30;;
14306;SDS011;7237;49.500;11.400;2022-09-28T01:37:30;5.87;;;1.20;;
14306;SDS011;7237;49.500;11.400;2022-09-28T01:39:59;0.70;;;0.70;;
14306;SDS011;7237;49.500;11.400;2022-09-28T01:42:29;0.70;;;0.70;;
14306;SDS011;7237;49.500;11.400;2022-09-28T01:44:59;1.83;;;0.97;;
14306;SDS011;7237;49.500;11.400;2022-09-28T01:47:28;3.60;;;0.70;;
14306;SDS011;7237;49.500;11.400;2022-09-28T01:49:58;2.40;;;0.90;;
14306;SDS011;7237;49.500;11.400;2022-09-28T01:52:27;2.97;;;1.30;;
14306;SDS011;7237;49.500;11.400;2022-09-28T01:54:56;1.20;;;0.80;;
14306;SDS011;7237;49.500;11.400;2022-09-28T01:57:24;3.23;;;0.93;;
14306;SDS011;7237;49.500;11.400;2022-09-28T01:59:54;1.33;;;0.60;;
14306;SDS011;7237;49.500;11.400;2022-09-28T02:02:24;1.67;;;1.10;;
14306;SDS011;7237;49.500;11.400;2022-09-28T02:04:54;1.03;;;0.87;;
14306;SDS011;7237;49.500;11.400;2022-09-28T02:07:25;0.93;;;0.77;;
14306;SDS011;7237;49.500;11.400;2022-09-28T02:09:56;1.90;;;1.00;;
14306;SDS011;7237;49.500;11.400;2022-09-28T02:12:26;1.13;;;1.00;;
14306;SDS011;7237;49.500;11.400;2022-09-28T02:14:58;0.93;;;0.80;;
14306;SDS011;7237;49.500;11.400;2022-09-28T02:17:27;3.27;;;0.73;;
14306;SDS011;7237;49.500;11.400;2022-09-28T02:19:54;1.73;;;1.07;;
14306;SDS011;7237;49.500;11.400;2022-09-28T02:22:23;0.83;;;0.70;;
14306;SDS011;7237;49.500;11.400;2022-09-28T02:24:52;1.13;;;0.73;;
14306;SDS011;7237;49.500;11.400;2022-09-28T02:27:21;1.50;;;0.97;;
14306;SDS011;7237;49.500;11.400;2022-09-28T02:29:50;0.93;;;0.87;;
14306;SDS011;7237;49.500;11.400;2022-09-28T02:32:18;3.80;;;0.80;;
14306;SDS011;7237;49.500;11.400;2022-09-28T02:34:45;4.17;;;0.80;;
14306;SDS011;7237;49.500;11.400;2022-09-28T02:37:13;1.13;;;0.73;;
14306;SDS011;7237;49.500;11.400;2022-09-28T02:39:40;0.57;;;0.57;;
14306;SDS011;7237;49.500;11.400;2022-09-28T02:42:10;2.37;;;0.80;;
14306;SDS011;7237;49.500;11.400;2022-09-28T02:44:44;2.70;;;0.87;;
14306;SDS011;7237;49.500;11.400;2022-09-28T02:47:15;2.73;;;0.80;;
14306;SDS011;7237;49.500;11.400;2022-09-28T02:49:46;0.63;;;0.60;;
14306;SDS011;7237;49.500;11.400;2022-09-28T02:52:29;2.20;;;0.77;;
14306;SDS011;7237;49.500;11.400;2022-09-28T02:55:12;1.00;;;0.87;;
14306;SDS011;7237;49.500;11.400;2022-09-28T02:57:46;1.50;;;0.70;;
14306;SDS011;7237;49.500;11.400;2022-09-28T03:00:16;1.97;;;0.80;;
14306;SDS011;7237;49.500;11.400;2022-09-28T03:02:59;1.33;;;0.93;;
14306;SDS011;7237;49.500;11.400;2022-09-28T03:05:30;2.27;;;0.63;;
14306;SDS011;7237;49.500;11.400;2022-09-28T03:07:59;0.60;;;0.60;;
14306;SDS011;7237;49.500;11.400;2022-09-28T03:10:29;1.17;;;0.70;;
14306;SDS011;7237;49.500;11.400;2022-09-28T03:12:59;1.23;;;0.67;;
14306;SDS011;7237;49.500;11.400;2022-09-28T03:15:28;1.23;;;0.80;;
14306;SDS011;7237;49.500;11.400;2022-09-28T03:17:55;1.47;;;0.80;;
14306;SDS011;7237;49.500;11.400;2022-09-28T03:20:22;1.33;;;0.77;;
14306;SDS011;7237;49.500;11.400;2022-09-28T03:22:51;3.47;;;0.90;;
14306;SDS011;7237;49.500;11.400;2022-09-28T03:25:18;0.57;;;0.57;;
14306;SDS011;7237;49.500;11.400;2022-09-28T03:27:45;2.33;;;1.00;;
14306;SDS011;7237;49.500;11.400;2022-09-28T03:30:12;2.43;;;1.20;;
14306;SDS011;7237;49.500;11.400;2022-09-28T03:32:39;2.57;;;1.10;;
14306;SDS011;7237;49.500;11.400;2022-09-28T03:35:07;1.67;;;1.40;;
14306;SDS011;7237;49.500;11.400;2022-09-28T03:37:34;1.90;;;1.80;;
14306;SDS011;7237;49.500;11.400;2022-09-28T03:40:04;4.83;;;1.70;;
14306;SDS011;7237;49.500;11.400;2022-09-28T03:42:33;2.93;;;1.60;;
14306;SDS011;7237;49.500;11.400;2022-09-28T03:45:00;2.93;;;1.70;;
14306;SDS011;7237;49.500;11.400;2022-09-28T03:47:27;2.53;;;1.67;;
14306;SDS011;7237;49.500;11.400;2022-09-28T03:49:54;2.97;;;1.90;;
14306;SDS011;7237;49.500;11.400;2022-09-28T03:52:22;1.80;;;1.70;;
14306;SDS011;7237;49.500;11.400;2022-09-28T03:54:49;1.63;;;1.53;;
14306;SDS011;7237;49.500;11.400;2022-09-28T03:57:17;1.60;;;1.50;;
14306;SDS011;7237;49.500;11.400;2022-09-28T03:59:44;2.67;;;1.63;;
14306;SDS011;7237;49.500;11.400;2022-09-28T04:02:11;4.17;;;1.47;;
14306;SDS011;7237;49.500;11.400;2022-09-28T04:04:38;2.33;;;1.60;;
14306;SDS011;7237;49.500;11.400;2022-09-28T04:07:05;2.13;;;1.57;;
14306;SDS011;7237;49.500;11.400;2022-09-28T04:09:32;1.70;;;1.37;;
14306;SDS011;7237;49.500;11.400;2022-09-28T04:11:59;1.63;;;1.20;;
14306;SDS011;7237;49.500;11.400;2022-09-28T04:14:28;1.40;;;1.30;;
14306;SDS011;7237;49.500;11.400;2022-09-28T04:16:55;1.73;;;1.57;;
14306;SDS011;7237;49.500;11.400;2022-09-28T04:19:22;2.63;;;1.80;;
14306;SDS011;7237;49.500;11.400;2022-09-28T04:21:49;2.90;;;1.30;;
14306;SDS011;7237;49.500;11.400;2022-09-28T04:24:16;4.40;;;1.63;;
14306;SDS011;7237;49.500;11.400;2022-09-28T04:26:44;1.87;;;1.47;;
14306;SDS011;7237;49.500;11.400;2022-09-28T04:29:11;2.60;;;1.50;;
14306;SDS011;7237;49.500;11.400;2022-09-28T04:31:42;1.70;;;1.60;;
14306;SDS011;7237;49.500;11.400;2022-09-28T04:34:10;1.80;;;1.70;;
14306;SDS011;7237;49.500;11.400;2022-09-28T04:36:37;4.57;;;1.50;;
14306;SDS011;7237;49.500;11.400;2022-09-28T04:39:04;2.93;;;2.20;;
14306;SDS011;7237;49.500;11.400;2022-09-28T04:41:32;3.03;;;1.83;;
14306;SDS011;7237;49.500;11.400;2022-09-28T04:43:59;1.77;;;1.50;;
14306;SDS011;7237;49.500;11.400;2022-09-28T04:46:26;2.07;;;1.90;;
14306;SDS011;7237;49.500;11.400;2022-09-28T04:48:54;4.33;;;2.07;;
14306;SDS011;7237;49.500;11.400;2022-09-28T04:51:21;6.20;;;1.80;;
14306;SDS011;7237;49.500;11.400;2022-09-28T04:53:48;3.23;;;1.80;;
14306;SDS011;7237;49.500;11.400;2022-09-28T04:56:16;2.43;;;1.73;;
14306;SDS011;7237;49.500;11.400;2022-09-28T04:58:43;4.80;;;2.10;;
14306;SDS011;7237;49.500;11.400;2022-09-28T05:01:11;5.00;;;2.07;;
14306;SDS011;7237;49.500;11.400;2022-09-28T05:03:39;1.97;;;1.77;;
14306;SDS011;7237;49.500;11.400;2022-09-28T05:06:07;2.63;;;1.80;;
14306;SDS011;7237;49.500;11.400;2022-09-28T05:08:34;2.27;;;2.07;;
14306;SDS011;7237;49.500;11.400;2022-09-28T05:11:02;3.13;;;1.90;;
14306;SDS011;7237;49.500;11.400;2022-09-28T05:13:30;1.97;;;1.77;;
14306;SDS011;7237;49.500;11.400;2022-09-28T05:15:59;3.07;;;2.03;;
14306;SDS011;7237;49.500;11.400;2022-09-28T05:18:26;5.23;;;1.67;;
14306;SDS011;7237;49.500;11.400;2022-09-28T05:20:53;1.60;;;1.50;;
14306;SDS011;7237;49.500;11.400;2022-09-28T05:23:22;2.20;;;2.00;;
14306;SDS011;7237;49.500;11.400;2022-09-28T05:25:49;2.20;;;1.83;;
14306;SDS011;7237;49.500;11.400;2022-09-28T05:28:17;3.03;;;1.70;;
14306;SDS011;7237;49.500;11.400;2022-09-28T05:30:46;2.90;;;1.70;;
14306;SDS011;7237;49.500;11.400;2022-09-28T05:33:13;3.93;;;1.73;;
14306;SDS011;7237;49.500;11.400;2022-09-28T05:35:40;1.87;;;1.73;;
14306;SDS011;7237;49.500;11.400;2022-09-28T05:38:07;2.47;;;1.90;;
14306;SDS011;7237;49.500;11.400;2022-09-28T05:40:35;4.17;;;1.90;;
14306;SDS011;7237;49.500;11.400;2022-09-28T05:43:02;4.63;;;1.63;;
14306;SDS011;7237;49.500;11.400;2022-09-28T05:45:29;1.70;;;1.60;;
14306;SDS011;7237;49.500;11.400;2022-09-28T05:47:56;2.00;;;1.53;;
14306;SDS011;7237;49.500;11.400;2022-09-28T05:50:23;2.00;;;1.37;;
14306;SDS011;7237;49.500;11.400;2022-09-28T05:52:57;2.40;;;1.50;;
14306;SDS011;7237;49.500;11.400;2022-09-28T05:55:24;2.83;;;1.53;;
14306;SDS011;7237;49.500;11.400;2022-09-28T05:57:54;1.57;;;1.47;;
14306;SDS011;7237;49.500;11.400;2022-09-28T06:00:23;2.57;;;1.80;;
14306;SDS011;7237;49.500;11.400;2022-09-28T06:02:59;1.97;;;1.77;;
14306;SDS011;7237;49.500;11.400;2022-09-28T06:05:27;1.83;;;1.73;;
14306;SDS011;7237;49.500;11.400;2022-09-28T06:07:55;1.60;;;1.50;;
14306;SDS011;7237;49.500;11.400;2022-09-28T06:10:22;2.47;;;2.00;;
14306;SDS011;7237;49.500;11.400;2022-09-28T06:12:54;2.27;;;1.77;;
14306;SDS011;7237;49.500;11.400;2022-09-28T06:15:22;2.40;;;1.90;;
14306;SDS011;7237;49.500;11.400;2022-09-28T06:17:54;2.43;;;1.80;;
14306;SDS011;7237;49.500;11.400;2022-09-28T06:20:21;2.00;;;1.80;;
14306;SDS011;7237;49.500;11.400;2022-09-28T06:22:49;1.70;;;1.60;;
14306;SDS011;7237;49.500;11.400;2022-09-28T06:25:16;2.20;;;1.87;;
14306;SDS011;7237;49.500;11.400;2022-09-28T06:27:52;3.40;;;2.30;;
14306;SDS011;7237;49.500;11.400;2022-09-28T06:30:20;1.93;;;1.70;;
14306;SDS011;7237;49.500;11.400;2022-09-28T06:32:50;2.30;;;1.77;;
14306;SDS011;7237;49.500;11.400;2022-09-28T06:35:17;1.77;;;1.67;;
14306;SDS011;7237;49.500;11.400;2022-09-28T06:37:45;2.00;;;1.70;;
14306;SDS011;7237;49.500;11.400;2022-09-28T06:40:12;1.83;;;1.70;;
14306;SDS011;7237;49.500;11.400;2022-09-28T06:42:39;1.83;;;1.60;;
14306;SDS011;7237;49.500;11.400;2022-09-28T06:45:06;2.50;;;2.00;;
14306;SDS011;7237;49.500;11.400;2022-09-28T06:47:36;3.80;;;2.13;;
14306;SDS011;7237;49.500;11.400;2022-09-28T06:50:03;3.80;;;2.17;;
14306;SDS011;7237;49.500;11.400;2022-09-28T06:52:36;2.67;;;2.13;;
14306;SDS011;7237;49.500;11.400;2022-09-28T06:55:03;8.50;;;5.10;;
14306;SDS011;7237;49.500;11.400;2022-09-28T06:57:31;6.67;;;4.70;;
14306;SDS011;7237;49.500;11.400;2022-09-28T06:59:58;2.60;;;2.40;;
14306;SDS011;7237;49.500;11.400;2022-09-28T07:02:25;1.70;;;1.30;;
14306;SDS011;7237;49.500;11.400;2022-09-28T07:04:54;1.13;;;1.13;;
14306;SDS011;7237;49.500;11.400;2022-09-28T07:07:21;2.33;;;1.27;;
14306;SDS011;7237;49.500;11.400;2022-09-28T07:09:51;1.73;;;1.63;;
14306;SDS011;7237;49.500;11.400;2022-09-28T07:12:18;1.10;;;0.97;;
14306;SDS011;7237;49.500;11.400;2022-09-28T07:14:46;2.50;;;1.47;;
14306;SDS011;7237;49.500;11.400;2022-09-28T07:17:14;3.17;;;1.20;;
14306;SDS011;7237;49.500;11.400;2022-09-28T07:19:41;3.80;;;1.07;;
14306;SDS011;7237;49.500;11.400;2022-09-28T07:22:09;3.23;;;3.00;;
14306;SDS011;7237;49.500;11.400;2022-09-28T07:24:38;2.90;;;1.83;;
14306;SDS011;7237;49.500;11.400;2022-09-28T07:27:07;1.63;;;1.40;;
14306;SDS011;7237;49.500;11.400;2022-09-28T07:29:34;1.07;;;1.07;;
14306;SDS011;7237;49.500;11.400;2022-09-28T07:32:02;1.50;;;1.13;;
14306;SDS011;7237;49.500;11.400;2022-09-28T07:34:29;1.53;;;1.20;;
14306;SDS011;7237;49.500;11.400;2022-09-28T07:36:56;1.60;;;1.37;;
14306;SDS011;7237;49.500;11.400;2022-09-28T07:39:24;1.50;;;1.20;;
14306;SDS011;7237;49.500;11.400;2022-09-28T07:41:51;1.40;;;1.30;;
14306;SDS011;7237;49.500;11.400;2022-09-28T07:44:17;5.03;;;2.87;;
14306;SDS011;7237;49.500;11.400;2022-09-28T07:46:44;5.93;;;2.60;;
14306;SDS011;7237;49.500;11.400;2022-09-28T07:49:11;1.70;;;1.60;;
14306;SDS011;7237;49.500;11.400;2022-09-28T07:51:40;1.60;;;1.50;;
14306;SDS011;7237;49.500;11.400;2022-09-28T07:54:08;3.80;;;3.50;;
14306;SDS011;7237;49.500;11.400;2022-09-28T07:56:37;2.80;;;2.23;;
14306;SDS011;7237;49.500;11.400;2022-09-28T07:59:04;1.20;;;1.20;;
14306;SDS011;7237;49.500;11.400;2022-09-28T08:01:31;1.53;;;1.43;;
14306;SDS011;7237;49.500;11.400;2022-09-28T08:03:58;1.63;;;1.40;;
14306;SDS011;7237;49.500;11.400;2022-09-28T08:06:25;1.60;;;1.50;;
14306;SDS011;7237;49.500;11.400;2022-09-28T08:08:52;2.97;;;2.77;;
14306;SDS011;7237;49.500;11.400;2022-09-28T08:11:20;1.40;;;1.30;;
14306;SDS011;7237;49.500;11.400;2022-09-28T08:13:49;3.43;;;2.37;;
14306;SDS011;7237;49.500;11.400;2022-09-28T08:16:16;2.67;;;2.47;;
14306;SDS011;7237;49.500;11.400;2022-09-28T08:18:44;2.00;;;1.80;;
14306;SDS011;7237;49.500;11.400;2022-09-28T08:21:14;2.07;;;1.97;;
14306;SDS011;7237;49.500;11.400;2022-09-28T08:23:58;4.00;;;1.57;;
14306;SDS011;7237;49.500;11.400;2022-09-28T08:26:25;2.33;;;1.43;;
14306;SDS011;7237;49.500;11.400;2022-09-28T08:28:54;3.27;;;1.97;;
14306;SDS011;7237;49.500;11.400;2022-09-28T08:31:21;1.33;;;1.13;;
14306;SDS011;7237;49.500;11.400;2022-09-28T08:33:49;1.90;;;1.30;;
14306;SDS011;7237;49.500;11.400;2022-09-28T08:36:17;1.80;;;1.20;;
14306;SDS011;7237;49.500;11.400;2022-09-28T08:38:45;2.00;;;1.43;;
14306;SDS011;7237;49.500;11.400;2022-09-28T08:41:14;1.97;;;1.50;;
14306;SDS011;7237;49.500;11.400;2022-09-28T08:43:52;1.70;;;1.60;;
14306;SDS011;7237;49.500;11.400;2022-09-28T08:46:25;1.97;;;1.73;;
14306;SDS011;7237;49.500;11.400;2022-09-28T08:48:55;1.13;;;1.03;;
14306;SDS011;7237;49.500;11.400;2022-09-28T08:51:26;1.10;;;1.00;;
14306;SDS011;7237;49.500;11.400;2022-09-28T08:53:56;0.90;;;0.90;;
14306;SDS011;7237;49.500;11.400;2022-09-28T08:56:29;1.87;;;0.80;;
14306;SDS011;7237;49.500;11.400;2022-09-28T08:58:57;0.90;;;0.90;;
14306;SDS011;7237;49.500;11.400;2022-09-28T09:01:29;1.47;;;1.37;;
14306;SDS011;7237;49.500;11.400;2022-09-28T09:03:57;1.73;;;1.63;;
14306;SDS011;7237;49.500;11.400;2022-09-28T09:06:26;2.33;;;2.13;;
14306;SDS011;7237;49.500;11.400;2022-09-28T09:08:58;2.10;;;2.00;;
14306;SDS011;7237;49.500;11.400;2022-09-28T09:11:30;1.90;;;1.80;;
14306;SDS011;7237;49.500;11.400;2022-09-28T09:16:51;1.27;;;1.17;;
14306;SDS011;7237;49.500;11.400;2022-09-28T09:19:26;1.37;;;1.27;;
14306;SDS011;7237;49.500;11.400;2022-09-28T09:21:57;1.10;;;1.10;;
14306;SDS011;7237;49.500;11.400;2022-09-28T09:24:26;1.53;;;1.30;;
14306;SDS011;7237;49.500;11.400;2022-09-28T09:26:56;1.20;;;1.10;;
14306;SDS011;7237;49.500;11.400;2022-09-28T09:29:28;1.00;;;0.90;;
14306;SDS011;7237;49.500;11.400;2022-09-28T09:32:01;2.07;;;1.97;;
14306;SDS011;7237;49.500;11.400;2022-09-28T09:34:40;1.50;;;1.40;;
14306;SDS011;7237;49.500;11.400;2022-09-28T09:37:18;0.60;;;0.60;;
14306;SDS011;7237;49.500;11.400;2022-09-28T09:39:51;0.80;;;0.70;;
14306;SDS011;7237;49.500;11.400;2022-09-28T09:42:27;0.60;;;0.60;;
14306;SDS011;7237;49.500;11.400;2022-09-28T09:45:10;0.73;;;0.73;;
14306;SDS011;7237;49.500;11.400;2022-09-28T09:47:43;1.60;;;0.67;;
14306;SDS011;7237;49.500;11.400;2022-09-28T09:50:16;0.80;;;0.80;;
14306;SDS011;7237;49.500;11.400;2022-09-28T09:52:50;1.00;;;0.90;;
14306;SDS011;7237;49.500;11.400;2022-09-28T09:55:21;1.57;;;1.00;;
14306;SDS011;7237;49.500;11.400;2022-09-28T09:57:50;2.47;;;0.80;;
14306;SDS011;7237;49.500;11.400;2022-09-28T10:00:18;1.00;;;0.87;;
14306;SDS011;7237;49.500;11.400;2022-09-28T10:02:47;0.63;;;0.63;;
14306;SDS011;7237;49.500;11.400;2022-09-28T10:05:16;2.53;;;0.80;;
14306;SDS011;7237;49.500;11.400;2022-09-28T10:07:46;0.70;;;0.60;;
14306;SDS011;7237;49.500;11.400;2022-09-28T10:10:16;0.63;;;0.63;;
14306;SDS011;7237;49.500;11.400;2022-09-28T10:12:47;0.70;;;0.70;;
14306;SDS011;7237;49.500;11.400;2022-09-28T10:15:22;1.57;;;0.70;;
14306;SDS011;7237;49.500;11.400;2022-09-28T10:17:50;0.83;;;0.80;;
14306;SDS011;7237;49.500;11.400;2022-09-28T10:20:17;1.00;;;0.90;;
14306;SDS011;7237;49.500;11.400;2022-09-28T10:22:45;2.17;;;0.80;;
14306;SDS011;7237;49.500;11.400;2022-09-28T10:25:13;0.43;;;0.43;;
14306;SDS011;7237;49.500;11.400;2022-09-28T10:27:41;0.70;;;0.70;;
14306;SDS011;7237;49.500;11.400;2022-09-28T10:30:13;0.40;;;0.40;;
14306;SDS011;7237;49.500;11.400;2022-09-28T10:32:42;0.53;;;0.47;;
14306;SDS011;7237;49.500;11.400;2022-09-28T10:35:12;1.30;;;0.53;;
14306;SDS011;7237;49.500;11.400;2022-09-28T10:37:47;1.20;;;0.70;;
14306;SDS011;7237;49.500;11.400;2022-09-28T10:40:24;0.50;;;0.50;;
14306;SDS011;7237;49.500;11.400;2022-09-28T10:42:58;0.53;;;0.53;;
14306;SDS011;7237;49.500;11.400;2022-09-28T10:45:25;0.73;;;0.70;;
14306;SDS011;7237;49.500;11.400;2022-09-28T10:47:52;1.20;;;0.60;;
14306;SDS011;7237;49.500;11.400;2022-09-28T10:50:21;0.63;;;0.63;;
14306;SDS011;7237;49.500;11.400;2022-09-28T10:52:49;0.50;;;0.50;;
14306;SDS011;7237;49.500;11.400;2022-09-28T10:55:26;1.27;;;0.67;;
14306;SDS011;7237;49.500;11.400;2022-09-28T10:57:54;1.57;;;0.50;;
14306;SDS011;7237;49.500;11.400;2022-09-28T11:00:29;0.60;;;0.37;;
14306;SDS011;7237;49.500;11.400;2022-09-28T11:02:56;0.57;;;0.47;;
14306;SDS011;7237;49.500;11.400;2022-09-28T11:05:25;0.60;;;0.60;;
14306;SDS011;7237;49.500;11.400;2022-09-28T11:07:52;1.33;;;0.53;;
14306;SDS011;7237;49.500;11.400;2022-09-28T11:10:21;0.70;;;0.60;;
14306;SDS011;7237;49.500;11.400;2022-09-28T11:12:49;1.33;;;0.80;;
14306;SDS011;7237;49.500;11.400;2022-09-28T11:15:17;1.03;;;0.57;;
14306;SDS011;7237;49.500;11.400;2022-09-28T11:17:45;2.40;;;0.70;;
14306;SDS011;7237;49.500;11.400;2022-09-28T11:20:29;0.63;;;0.50;;
14306;SDS011;7237;49.500;11.400;2022-09-28T11:22:57;0.40;;;0.40;;
14306;SDS011;7237;49.500;11.400;2022-09-28T11:25:27;0.50;;;0.50;;
14306;SDS011;7237;49.500;11.400;2022-09-28T11:27:56;0.47;;;0.47;;
14306;SDS011;7237;49.500;11.400;2022-09-28T11:30:24;1.13;;;0.57;;
14306;SDS011;7237;49.500;11.400;2022-09-28T11:32:53;0.57;;;0.57;;
14306;SDS011;7237;49.500;11.400;2022-09-28T11:35:24;0.40;;;0.40;;
14306;SDS011;7237;49.500;11.400;2022-09-28T11:38:01;1.53;;;0.63;;
14306;SDS011;7237;49.500;11.400;2022-09-28T11:40:33;1.50;;;0.70;;
14306;SDS011;7237;49.500;11.400;2022-09-28T11:43:04;1.00;;;0.73;;
14306;SDS011;7237;49.500;11.400;2022-09-28T11:45:37;0.60;;;0.33;;
14306;SDS011;7237;49.500;11.400;2022-09-28T11:48:07;1.97;;;0.90;;
14306;SDS011;7237;49.500;11.400;2022-09-28T11:50:39;2.93;;;0.80;;
14306;SDS011;7237;49.500;11.400;2022-09-28T11:53:12;0.87;;;0.53;;
14306;SDS011;7237;49.500;11.400;2022-09-28T11:55:42;0.97;;;0.77;;
14306;SDS011;7237;49.500;11.400;2022-09-28T11:58:12;0.73;;;0.60;;
14306;SDS011;7237;49.500;11.400;2022-09-28T12:00:42;0.87;;;0.70;;
14306;SDS011;7237;49.500;11.400;2022-09-28T12:03:11;0.97;;;0.43;;
14306;SDS011;7237;49.500;11.400;2022-09-28T12:05:40;0.73;;;0.50;;
14306;SDS011;7237;49.500;11.400;2022-09-28T12:08:13;1.07;;;0.63;;
14306;SDS011;7237;49.500;11.400;2022-09-28T12:10:42;0.47;;;0.43;;
14306;SDS011;7237;49.500;11.400;2022-09-28T12:13:13;1.10;;;0.70;;
14306;SDS011;7237;49.500;11.400;2022-09-28T12:15:45;0.70;;;0.60;;
14306;SDS011;7237;49.500;11.400;2022-09-28T12:18:14;0.73;;;0.60;;
14306;SDS011;7237;49.500;11.400;2022-09-28T12:20:42;1.00;;;0.60;;
14306;SDS011;7237;49.500;11.400;2022-09-28T12:23:11;1.17;;;0.67;;
14306;SDS011;7237;49.500;11.400;2022-09-28T12:25:42;3.63;;;0.60;;
14306;SDS011;7237;49.500;11.400;2022-09-28T12:28:14;1.37;;;0.50;;
14306;SDS011;7237;49.500;11.400;2022-09-28T12:30:43;0.40;;;0.40;;
14306;SDS011;7237;49.500;11.400;2022-09-28T12:33:11;0.70;;;0.70;;
14306;SDS011;7237;49.500;11.400;2022-09-28T12:35:43;2.13;;;0.50;;
14306;SDS011;7237;49.500;11.400;2022-09-28T12:38:18;1.20;;;0.80;;
14306;SDS011;7237;49.500;11.400;2022-09-28T12:40:51;1.87;;;0.50;;
14306;SDS011;7237;49.500;11.400;2022-09-28T12:43:26;1.43;;;0.43;;
14306;SDS011;7237;49.500;11.400;2022-09-28T12:46:00;0.50;;;0.50;;
14306;SDS011;7237;49.500;11.400;2022-09-28T12:48:37;1.00;;;0.57;;
14306;SDS011;7237;49.500;11.400;2022-09-28T12:51:13;0.67;;;0.50;;
14306;SDS011;7237;49.500;11.400;2022-09-28T12:53:57;3.03;;;0.60;;
14306;SDS011;7237;49.500;11.400;2022-09-28T12:56:30;1.00;;;0.50;;
14306;SDS011;7237;49.500;11.400;2022-09-28T12:59:02;1.07;;;1.00;;
14306;SDS011;7237;49.500;11.400;2022-09-28T13:01:43;1.93;;;0.60;;
14306;SDS011;7237;49.500;11.400;2022-09-28T13:04:31;1.47;;;0.60;;
14306;SDS011;7237;49.500;11.400;2022-09-28T13:07:03;1.95;;;0.70;;
14306;SDS011;7237;49.500;11.400;2022-09-28T13:09:33;1.10;;;1.00;;
14306;SDS011;7237;49.500;11.400;2022-09-28T13:14:59;0.37;;;0.30;;
14306;SDS011;7237;49.500;11.400;2022-09-28T13:17:33;1.43;;;0.60;;
14306;SDS011;7237;49.500;11.400;2022-09-28T13:20:07;2.00;;;0.73;;
14306;SDS011;7237;49.500;11.400;2022-09-28T13:22:42;0.93;;;0.47;;
14306;SDS011;7237;49.500;11.400;2022-09-28T13:25:15;0.70;;;0.60;;
14306;SDS011;7237;49.500;11.400;2022-09-28T13:27:44;1.13;;;0.63;;
14306;SDS011;7237;49.500;11.400;2022-09-28T13:30:13;1.37;;;0.50;;
14306;SDS011;7237;49.500;11.400;2022-09-28T13:32:43;1.10;;;0.60;;
14306;SDS011;7237;49.500;11.400;2022-09-28T13:35:11;1.27;;;0.60;;
14306;SDS011;7237;49.500;11.400;2022-09-28T13:37:39;3.63;;;1.10;;
14306;SDS011;7237;49.500;11.400;2022-09-28T13:40:07;1.17;;;0.70;;
14306;SDS011;7237;49.500;11.400;2022-09-28T13:48:13;0.90;;;0.73;;
14306;SDS011;7237;49.500;11.400;2022-09-28T13:50:57;2.27;;;1.10;;
14306;SDS011;7237;49.500;11.400;2022-09-28T13:53:30;1.37;;;0.83;;
14306;SDS011;7237;49.500;11.400;2022-09-28T13:56:03;1.13;;;0.73;;
14306;SDS011;7237;49.500;11.400;2022-09-28T13:58:41;1.67;;;0.93;;
14306;SDS011;7237;49.500;11.400;2022-09-28T14:01:10;1.47;;;0.80;;
14306;SDS011;7237;49.500;11.400;2022-09-28T14:03:51;2.10;;;0.73;;
14306;SDS011;7237;49.500;11.400;2022-09-28T14:06:20;0.43;;;0.33;;
14306;SDS011;7237;49.500;11.400;2022-09-28T14:19:50;2.10;;;0.77;;
14306;SDS011;7237;49.500;11.400;2022-09-28T14:22:19;1.33;;;0.80;;
14306;SDS011;7237;49.500;11.400;2022-09-28T14:27:39;0.70;;;0.70;;
14306;SDS011;7237;49.500;11.400;2022-09-28T14:32:55;2.60;;;1.70;;
14306;SDS011;7237;49.500;11.400;2022-09-28T14:35:26;2.30;;;1.80;;
14306;SDS011;7237;49.500;11.400;2022-09-28T14:37:56;3.05;;;1.90;;
14306;SDS011;7237;49.500;11.400;2022-09-28T14:40:55;2.20;;;1.80;;
14306;SDS011;7237;49.500;11.400;2022-09-28T14:43:36;4.93;;;1.60;;
14306;SDS011;7237;49.500;11.400;2022-09-28T14:48:46;1.40;;;1.30;;
14306;SDS011;7237;49.500;11.400;2022-09-28T14:54:01;1.37;;;1.00;;
14306;SDS011;7237;49.500;11.400;2022-09-28T14:56:30;5.27;;;1.17;;
14306;SDS011;7237;49.500;11.400;2022-09-28T14:58:58;1.87;;;1.20;;
14306;SDS011;7237;49.500;11.400;2022-09-28T15:01:26;1.47;;;1.00;;
14306;SDS011;7237;49.500;11.400;2022-09-28T15:03:54;1.97;;;1.30;;
14306;SDS011;7237;49.500;11.400;2022-09-28T15:06:22;2.77;;;1.30;;
14306;SDS011;7237;49.500;11.400;2022-09-28T15:08:49;2.63;;;1.20;;
14306;SDS011;7237;49.500;11.400;2022-09-28T15:11:19;2.67;;;1.30;;
14306;SDS011;7237;49.500;11.400;2022-09-28T15:13:48;1.90;;;1.20;;
14306;SDS011;7237;49.500;11.400;2022-09-28T15:16:17;2.38;;;1.40;;
14306;SDS011;7237;49.500;11.400;2022-09-28T15:21:35;1.40;;;1.30;;
14306;SDS011;7237;49.500;11.400;2022-09-28T15:24:02;2.80;;;1.17;;
14306;SDS011;7237;49.500;11.400;2022-09-28T15:26:31;0.70;;;0.70;;
14306;SDS011;7237;49.500;11.400;2022-09-28T15:28:58;1.60;;;0.80;;
14306;SDS011;7237;49.500;11.400;2022-09-28T15:31:29;1.43;;;0.70;;
14306;SDS011;7237;49.500;11.400;2022-09-28T15:33:56;0.97;;;0.70;;
14306;SDS011;7237;49.500;11.400;2022-09-28T15:36:41;1.30;;;0.73;;
14306;SDS011;7237;49.500;11.400;2022-09-28T15:39:11;1.13;;;0.60;;
14306;SDS011;7237;49.500;11.400;2022-09-28T15:41:40;0.73;;;0.63;;